createdAt,value
2022-12-26T00:01:11.953Z,7.80
2022-12-26T00:03:40.323Z,8.17
2022-12-26T00:06:14.869Z,8.13
2022-12-26T00:08:42.981Z,8.50
2022-12-26T00:11:11.220Z,8.07
2022-12-26T00:13:41.612Z,8.10
2022-12-26T00:16:11.840Z,8.70
2022-12-26T00:18:40.078Z,8.30
2022-12-26T00:21:08.732Z,7.50
2022-12-26T00:23:38.716Z,8.10
2022-12-26T00:26:08.269Z,6.97
2022-12-26T00:28:36.503Z,7.40
2022-12-26T00:31:05.649Z,6.70
2022-12-26T00:33:35.439Z,7.50
2022-12-26T00:36:04.159Z,6.77
2022-12-26T00:38:32.553Z,6.90
2022-12-26T00:41:01.855Z,7.40
2022-12-26T00:43:29.725Z,6.93
2022-12-26T00:45:59.174Z,7.50
2022-12-26T00:48:27.455Z,7.93
2022-12-26T00:50:55.831Z,8.00
2022-12-26T00:53:24.444Z,7.37
2022-12-26T00:55:53.016Z,7.47
2022-12-26T00:58:23.165Z,8.03
2022-12-26T01:00:51.802Z,7.83
2022-12-26T01:03:20.504Z,8.00
2022-12-26T01:05:51.020Z,7.83
2022-12-26T01:08:24.622Z,7.93
2022-12-26T01:10:53.662Z,8.07
2022-12-26T01:13:22.912Z,9.30
2022-12-26T01:15:51.841Z,7.80
2022-12-26T01:18:19.903Z,9.67
2022-12-26T01:20:48.673Z,9.17
2022-12-26T01:23:17.624Z,8.53
2022-12-26T01:26:18.455Z,8.17
2022-12-26T01:28:34.879Z,7.93
2022-12-26T01:31:03.661Z,8.30
2022-12-26T01:33:31.982Z,9.50
2022-12-26T01:36:00.720Z,9.17
2022-12-26T01:38:28.965Z,9.00
2022-12-26T01:41:10.850Z,9.13
2022-12-26T01:44:01.441Z,9.57
2022-12-26T01:46:34.791Z,9.40
2022-12-26T01:49:08.765Z,9.13
2022-12-26T01:51:41.305Z,9.10
2022-12-26T01:54:39.365Z,8.87
2022-12-26T01:57:03.994Z,8.93
2022-12-26T01:59:40.826Z,9.90
2022-12-26T02:02:10.086Z,10.53
2022-12-26T02:05:02.499Z,9.13
2022-12-26T02:07:30.443Z,9.10
2022-12-26T02:09:58.395Z,9.87
2022-12-26T02:12:37.361Z,9.50
2022-12-26T02:15:12.059Z,10.60
2022-12-26T02:17:40.930Z,9.00
2022-12-26T02:20:18.365Z,8.50
2022-12-26T02:23:32.343Z,8.70
2022-12-26T02:26:38.761Z,8.90
2022-12-26T02:29:36.749Z,8.57
2022-12-26T02:32:12.832Z,9.50
2022-12-26T02:34:51.025Z,9.50
2022-12-26T02:37:29.309Z,9.20
2022-12-26T02:40:17.741Z,9.70
2022-12-26T02:42:58.996Z,8.53
2022-12-26T02:45:52.393Z,10.10
2022-12-26T02:48:31.213Z,9.30
2022-12-26T02:51:28.048Z,10.50
2022-12-26T02:54:24.724Z,10.40
2022-12-26T02:57:14.147Z,10.20
2022-12-26T03:00:08.600Z,9.73
2022-12-26T03:02:59.249Z,10.00
2022-12-26T03:05:51.996Z,10.50
2022-12-26T03:08:43.862Z,10.40
2022-12-26T03:11:29.156Z,10.23
2022-12-26T03:14:06.527Z,10.40
2022-12-26T03:16:53.020Z,10.37
2022-12-26T03:19:22.753Z,10.50
2022-12-26T03:21:52.917Z,10.67
2022-12-26T03:24:23.510Z,11.00
2022-12-26T03:26:54.108Z,10.63
2022-12-26T03:29:42.034Z,10.60
2022-12-26T03:32:12.883Z,10.80
2022-12-26T03:34:44.341Z,9.07
2022-12-26T03:37:48.305Z,9.90
2022-12-26T03:40:47.286Z,10.53
2022-12-26T03:43:44.098Z,11.33
2022-12-26T03:46:41.070Z,13.17
2022-12-26T03:49:35.268Z,11.97
2022-12-26T03:52:25.003Z,12.20
2022-12-26T03:55:21.323Z,11.20
2022-12-26T03:58:12.969Z,10.60
2022-12-26T04:01:00.874Z,11.13
2022-12-26T04:03:50.481Z,10.80
2022-12-26T04:06:40.252Z,10.53
2022-12-26T04:09:30.978Z,10.03
2022-12-26T04:12:20.881Z,11.40
2022-12-26T04:15:11.166Z,11.87
2022-12-26T04:18:01.344Z,11.17
2022-12-26T04:20:36.300Z,10.27
2022-12-26T04:23:25.819Z,11.07
2022-12-26T04:26:17.668Z,10.23
2022-12-26T04:29:04.285Z,10.97
2022-12-26T04:31:55.323Z,11.13
2022-12-26T04:34:49.105Z,9.90
2022-12-26T04:37:40.546Z,11.10
2022-12-26T04:40:32.391Z,11.07
2022-12-26T04:43:49.903Z,10.63
2022-12-26T04:46:08.194Z,10.57
2022-12-26T04:49:01.999Z,10.73
2022-12-26T04:51:30.334Z,12.20
2022-12-26T04:53:58.237Z,12.47
2022-12-26T04:56:26.253Z,11.60
2022-12-26T04:58:54.169Z,10.87
2022-12-26T05:01:40.949Z,13.40
2022-12-26T05:04:33.446Z,12.07
2022-12-26T05:07:20.812Z,11.80
2022-12-26T05:09:51.087Z,12.17
2022-12-26T05:12:19.282Z,11.70
2022-12-26T05:14:47.160Z,11.93
2022-12-26T05:17:34.161Z,12.00
2022-12-26T05:20:19.605Z,11.63
2022-12-26T05:23:05.300Z,11.60
2022-12-26T05:25:53.480Z,11.47
2022-12-26T05:28:39.302Z,13.03
2022-12-26T05:31:07.494Z,12.10
2022-12-26T05:33:54.169Z,11.70
2022-12-26T05:36:24.286Z,12.27
2022-12-26T05:38:52.470Z,12.33
2022-12-26T05:41:20.669Z,12.40
2022-12-26T05:43:48.569Z,12.23
2022-12-26T05:46:16.481Z,18.80
2022-12-26T05:48:45.817Z,20.53
2022-12-26T05:51:13.766Z,22.97
2022-12-26T05:53:41.963Z,26.70
2022-12-26T05:56:13.828Z,32.80
2022-12-26T05:58:42.207Z,36.70
2022-12-26T06:01:13.487Z,35.90
2022-12-26T06:03:43.377Z,55.20
2022-12-26T06:06:12.728Z,49.47
2022-12-26T06:08:42.056Z,29.83
2022-12-26T06:11:11.678Z,19.20
2022-12-26T06:13:40.803Z,12.87
2022-12-26T06:16:10.790Z,14.70
2022-12-26T06:18:39.157Z,14.57
2022-12-26T06:21:08.829Z,14.77
2022-12-26T06:23:38.826Z,13.87
2022-12-26T06:26:09.055Z,15.07
2022-12-26T06:28:37.840Z,14.00
2022-12-26T06:31:07.282Z,18.07
2022-12-26T06:33:35.569Z,16.70
2022-12-26T06:36:05.698Z,15.90
2022-12-26T06:38:33.982Z,16.20
2022-12-26T06:41:05.697Z,16.63
2022-12-26T06:43:33.558Z,15.83
2022-12-26T06:46:03.163Z,16.80
2022-12-26T06:48:33.253Z,18.43
2022-12-26T06:51:05.594Z,18.50
2022-12-26T06:53:35.167Z,23.10
2022-12-26T06:56:08.841Z,23.60
2022-12-26T06:58:37.041Z,18.00
2022-12-26T07:01:06.168Z,16.47
2022-12-26T07:03:34.157Z,14.93
2022-12-26T07:06:04.886Z,13.27
2022-12-26T07:08:33.309Z,14.10
2022-12-26T07:11:02.076Z,13.93
2022-12-26T07:13:31.352Z,12.87
2022-12-26T07:16:00.188Z,13.90
2022-12-26T07:18:28.067Z,13.60
2022-12-26T07:20:55.912Z,12.90
2022-12-26T07:23:23.783Z,12.73
2022-12-26T07:25:51.566Z,13.37
2022-12-26T07:28:19.446Z,14.97
2022-12-26T07:30:50.745Z,16.00
2022-12-26T07:33:19.758Z,16.90
2022-12-26T07:35:47.725Z,17.20
2022-12-26T07:38:15.574Z,17.67
2022-12-26T07:40:43.443Z,16.20
2022-12-26T07:43:11.536Z,16.00
2022-12-26T07:45:45.240Z,16.60
2022-12-26T07:48:15.161Z,16.60
2022-12-26T07:50:47.026Z,16.93
2022-12-26T07:53:15.502Z,16.80
2022-12-26T07:55:43.601Z,16.47
2022-12-26T07:58:11.505Z,16.93
2022-12-26T08:00:39.592Z,16.13
2022-12-26T08:03:08.463Z,15.40
2022-12-26T08:05:37.899Z,15.80
2022-12-26T08:08:08.130Z,15.20
2022-12-26T08:10:36.036Z,16.60
2022-12-26T08:13:03.956Z,16.60
2022-12-26T08:15:31.775Z,15.97
2022-12-26T08:17:59.587Z,16.93
2022-12-26T08:20:28.646Z,16.53
2022-12-26T08:25:30.819Z,17.97
2022-12-26T08:27:58.690Z,18.03
2022-12-26T08:30:26.646Z,18.20
2022-12-26T08:32:54.635Z,16.73
2022-12-26T08:35:22.583Z,16.80
2022-12-26T08:37:50.361Z,16.00
2022-12-26T08:40:40.011Z,15.73
2022-12-26T08:43:53.243Z,16.73
2022-12-26T08:46:00.007Z,17.37
2022-12-26T08:48:28.521Z,15.87
2022-12-26T08:50:57.949Z,16.30
2022-12-26T08:53:26.337Z,17.43
2022-12-26T08:55:55.846Z,15.97
2022-12-26T08:58:23.722Z,17.73
2022-12-26T09:00:55.408Z,17.90
2022-12-26T09:03:23.857Z,18.00
2022-12-26T09:05:53.535Z,17.83
2022-12-26T09:08:21.391Z,17.47
2022-12-26T09:10:49.256Z,19.53
2022-12-26T09:13:20.928Z,22.07
2022-12-26T09:15:48.751Z,18.77
2022-12-26T09:18:16.647Z,17.60
2022-12-26T09:20:44.552Z,17.30
2022-12-26T09:23:12.542Z,17.37
2022-12-26T09:25:40.557Z,19.60
2022-12-26T09:28:09.343Z,18.63
2022-12-26T09:30:39.310Z,16.70
2022-12-26T09:33:08.259Z,18.33
2022-12-26T09:35:36.175Z,17.50
2022-12-26T09:38:04.050Z,17.67
2022-12-26T09:40:44.205Z,20.10
2022-12-26T09:43:22.328Z,19.67
2022-12-26T09:46:05.901Z,19.33
2022-12-26T09:48:40.511Z,16.80
2022-12-26T09:51:10.987Z,18.23
2022-12-26T09:53:44.097Z,18.27
2022-12-26T09:56:36.921Z,18.47
2022-12-26T09:59:08.643Z,17.80
2022-12-26T10:01:38.410Z,17.57
2022-12-26T10:04:28.421Z,18.50
2022-12-26T10:07:11.642Z,18.33
2022-12-26T10:09:59.477Z,18.17
2022-12-26T10:12:37.388Z,18.30
2022-12-26T10:15:16.095Z,29.63
2022-12-26T10:17:50.917Z,24.67
2022-12-26T10:20:25.565Z,24.97
2022-12-26T10:23:16.163Z,21.50
2022-12-26T10:25:48.115Z,19.17
2022-12-26T10:28:21.448Z,19.70
2022-12-26T10:30:51.627Z,21.30
2022-12-26T10:33:36.400Z,21.60
2022-12-26T10:36:04.729Z,20.50
2022-12-26T10:38:38.887Z,20.63
2022-12-26T10:41:12.449Z,17.93
2022-12-26T10:43:44.847Z,19.60
2022-12-26T10:46:45.840Z,18.63
2022-12-26T10:49:18.082Z,17.80
2022-12-26T10:51:46.382Z,18.90
2022-12-26T10:54:17.978Z,19.23
2022-12-26T10:56:48.351Z,19.20
2022-12-26T10:59:20.001Z,18.47
2022-12-26T11:01:48.666Z,18.50
2022-12-26T11:04:44.532Z,18.33
2022-12-26T11:07:12.498Z,16.63
2022-12-26T11:09:43.992Z,16.43
2022-12-26T11:12:21.800Z,16.97
2022-12-26T11:14:50.199Z,18.77
2022-12-26T11:17:28.015Z,18.53
2022-12-26T11:20:22.312Z,18.57
2022-12-26T11:22:50.575Z,16.37
2022-12-26T11:25:21.452Z,17.00
2022-12-26T11:27:51.281Z,18.13
2022-12-26T11:30:29.466Z,17.60
2022-12-26T11:33:14.907Z,15.93
2022-12-26T11:35:51.306Z,16.20
2022-12-26T11:38:44.084Z,16.20
2022-12-26T11:41:39.467Z,16.90
2022-12-26T11:44:18.531Z,15.67
2022-12-26T11:46:49.996Z,15.63
2022-12-26T11:49:21.995Z,16.50
2022-12-26T11:51:58.478Z,15.60
2022-12-26T11:54:34.246Z,25.83
2022-12-26T11:57:10.192Z,17.70
2022-12-26T11:59:38.453Z,16.23
2022-12-26T12:02:27.895Z,16.97
2022-12-26T12:05:00.671Z,17.23
2022-12-26T12:08:07.014Z,16.53
2022-12-26T12:10:49.484Z,22.30
2022-12-26T12:13:44.132Z,22.33
2022-12-26T12:16:32.338Z,19.90
2022-12-26T12:19:14.362Z,19.57
2022-12-26T12:21:45.895Z,20.53
2022-12-26T12:24:34.282Z,20.93
2022-12-26T12:27:12.778Z,20.77
2022-12-26T12:29:54.056Z,21.43
2022-12-26T12:32:30.014Z,20.50
2022-12-26T12:35:16.446Z,19.17
2022-12-26T12:37:57.706Z,19.27
2022-12-26T12:40:33.058Z,18.63
2022-12-26T12:43:11.945Z,17.70
2022-12-26T12:45:49.229Z,17.57
2022-12-26T12:48:32.663Z,18.60
2022-12-26T12:51:11.026Z,18.33
2022-12-26T12:53:58.275Z,18.30
2022-12-26T12:56:35.803Z,18.77
2022-12-26T12:59:23.988Z,19.87
2022-12-26T13:01:56.473Z,19.37
2022-12-26T13:04:29.554Z,20.80
2022-12-26T13:07:00.759Z,20.43
2022-12-26T13:09:31.673Z,19.73
2022-12-26T13:12:03.498Z,20.57
2022-12-26T13:14:38.446Z,20.73
2022-12-26T13:17:11.006Z,21.03
2022-12-26T13:19:48.664Z,21.50
2022-12-26T13:22:26.903Z,21.40
2022-12-26T13:24:59.957Z,20.37
2022-12-26T13:27:31.784Z,20.00
2022-12-26T13:30:01.068Z,21.73
2022-12-26T13:32:31.306Z,20.17
2022-12-26T13:35:01.820Z,21.27
2022-12-26T13:37:56.498Z,23.13
2022-12-26T13:40:28.783Z,22.73
2022-12-26T13:43:19.449Z,19.73
2022-12-26T13:45:52.631Z,19.33
2022-12-26T13:48:56.905Z,18.43
2022-12-26T13:51:46.598Z,18.17
2022-12-26T13:54:16.245Z,21.07
2022-12-26T13:57:26.727Z,24.67
2022-12-26T14:00:07.035Z,21.93
2022-12-26T14:03:20.447Z,21.50
2022-12-26T14:06:13.295Z,19.60
2022-12-26T14:08:54.698Z,19.27
2022-12-26T14:11:38.373Z,20.83
2022-12-26T14:14:17.394Z,18.17
2022-12-26T14:16:51.926Z,18.43
2022-12-26T14:19:36.344Z,21.77
2022-12-26T14:22:12.293Z,22.37
2022-12-26T14:24:55.626Z,24.77
2022-12-26T14:27:34.048Z,22.37
2022-12-26T14:30:18.936Z,23.07
2022-12-26T14:33:01.672Z,23.60
2022-12-26T14:35:35.064Z,21.20
2022-12-26T14:38:18.870Z,21.33
2022-12-26T14:41:01.353Z,22.30
2022-12-26T14:43:36.985Z,21.57
2022-12-26T14:46:10.755Z,25.40
2022-12-26T14:48:55.891Z,27.77
2022-12-26T14:51:42.880Z,22.97
2022-12-26T14:54:32.030Z,19.87
2022-12-26T14:57:00.517Z,28.93
2022-12-26T14:59:31.268Z,22.70
2022-12-26T15:02:10.467Z,20.20
2022-12-26T15:04:53.764Z,21.53
2022-12-26T15:08:09.779Z,20.30
2022-12-26T15:11:22.985Z,21.60
2022-12-26T15:14:41.309Z,21.93
2022-12-26T15:17:22.123Z,21.93
2022-12-26T15:20:32.495Z,22.90
2022-12-26T15:23:30.377Z,23.10
2022-12-26T15:26:19.911Z,24.37
2022-12-26T15:29:19.193Z,24.60
2022-12-26T15:31:59.857Z,26.33
2022-12-26T15:34:45.738Z,25.00
2022-12-26T15:37:25.171Z,26.77
2022-12-26T15:40:02.394Z,28.10
2022-12-26T15:42:43.569Z,25.50
2022-12-26T15:45:30.642Z,23.47
2022-12-26T15:48:05.169Z,25.10
2022-12-26T15:50:45.773Z,23.37
2022-12-26T15:53:25.762Z,25.03
2022-12-26T15:56:05.486Z,23.97
2022-12-26T15:58:53.756Z,24.17
2022-12-26T16:01:38.123Z,24.97
2022-12-26T16:04:13.487Z,26.60
2022-12-26T16:06:54.552Z,32.40
2022-12-26T16:09:37.627Z,27.97
2022-12-26T16:12:21.904Z,24.93
2022-12-26T16:14:50.772Z,25.47
2022-12-26T16:17:22.177Z,24.30
2022-12-26T16:19:51.672Z,26.10
2022-12-26T16:22:46.460Z,26.17
2022-12-26T16:25:18.281Z,23.27
2022-12-26T16:27:48.918Z,25.10
2022-12-26T16:30:19.791Z,26.73
2022-12-26T16:32:48.291Z,25.67
2022-12-26T16:35:20.489Z,25.20
2022-12-26T16:37:49.338Z,25.07
2022-12-26T16:40:21.763Z,26.53
2022-12-26T16:43:00.760Z,25.83
2022-12-26T16:45:31.291Z,23.63
2022-12-26T16:47:59.843Z,25.47
2022-12-26T16:50:32.511Z,26.67
2022-12-26T16:53:10.691Z,25.37
2022-12-26T16:55:43.178Z,25.90
2022-12-26T16:58:19.501Z,24.20
2022-12-26T17:00:51.526Z,24.53
2022-12-26T17:03:28.193Z,29.03
2022-12-26T17:05:57.217Z,28.40
2022-12-26T17:08:26.081Z,32.77
2022-12-26T17:10:54.510Z,29.80
2022-12-26T17:13:27.572Z,28.30
2022-12-26T17:15:58.425Z,28.60
2022-12-26T17:18:46.199Z,31.77
2022-12-26T17:21:32.416Z,28.20
2022-12-26T17:24:26.056Z,26.87
2022-12-26T17:27:09.677Z,27.07
2022-12-26T17:29:51.000Z,27.40
2022-12-26T17:32:42.351Z,28.87
2022-12-26T17:35:16.065Z,31.33
2022-12-26T17:37:45.238Z,28.53
2022-12-26T17:40:28.202Z,30.53
2022-12-26T17:43:05.059Z,29.93
2022-12-26T17:45:34.242Z,31.37
2022-12-26T17:48:02.124Z,31.53
2022-12-26T17:50:32.562Z,30.20
2022-12-26T17:53:05.869Z,30.80
2022-12-26T17:55:34.558Z,30.20
2022-12-26T17:58:02.432Z,30.47
2022-12-26T18:00:30.784Z,29.50
2022-12-26T18:03:00.215Z,29.53
2022-12-26T18:05:28.230Z,28.50
2022-12-26T18:07:56.734Z,28.63
2022-12-26T18:10:28.651Z,28.60
2022-12-26T18:12:57.061Z,31.73
2022-12-26T18:15:26.977Z,28.10
2022-12-26T18:17:55.547Z,27.10
2022-12-26T18:20:28.796Z,28.47
2022-12-26T18:22:57.464Z,27.33
2022-12-26T18:25:27.819Z,29.73
2022-12-26T18:27:55.679Z,29.10
2022-12-26T18:30:26.557Z,28.40
2022-12-26T18:32:55.092Z,29.30
2022-12-26T18:35:24.375Z,28.67
2022-12-26T18:37:53.960Z,28.13
2022-12-26T18:40:31.897Z,29.20
2022-12-26T18:42:59.832Z,28.00
2022-12-26T18:45:28.147Z,27.70
2022-12-26T18:47:56.509Z,28.60
2022-12-26T18:50:26.436Z,27.50
2022-12-26T18:52:54.412Z,26.53
2022-12-26T18:55:23.042Z,25.37
2022-12-26T18:57:51.254Z,26.50
2022-12-26T19:00:20.581Z,31.20
2022-12-26T19:02:49.204Z,47.97
2022-12-26T19:05:19.079Z,52.60
2022-12-26T19:07:50.100Z,35.73
2022-12-26T19:10:19.504Z,30.03
2022-12-26T19:12:47.742Z,30.20
2022-12-26T19:15:16.474Z,27.67
2022-12-26T19:17:44.624Z,27.73
2022-12-26T19:20:19.744Z,29.30
2022-12-26T19:22:50.323Z,29.23
2022-12-26T19:25:19.543Z,27.53
2022-12-26T19:27:48.449Z,32.87
2022-12-26T19:30:17.661Z,33.40
2022-12-26T19:32:45.566Z,39.63
2022-12-26T19:35:14.964Z,35.63
2022-12-26T19:37:43.576Z,34.10
2022-12-26T19:40:18.391Z,33.00
2022-12-26T19:42:49.763Z,31.27
2022-12-26T19:45:18.026Z,32.27
2022-12-26T19:47:45.915Z,29.00
2022-12-26T19:50:13.928Z,29.67
2022-12-26T19:52:41.803Z,30.57
2022-12-26T19:55:13.463Z,30.13
2022-12-26T19:57:41.386Z,29.70
2022-12-26T20:00:11.642Z,29.07
2022-12-26T20:02:42.665Z,30.70
2022-12-26T20:05:11.220Z,27.93
2022-12-26T20:07:39.056Z,58.10
2022-12-26T20:10:07.658Z,47.77
2022-12-26T20:12:36.881Z,50.87
2022-12-26T20:15:05.207Z,35.57
2022-12-26T20:17:33.071Z,34.60
2022-12-26T20:20:01.024Z,31.60
2022-12-26T20:22:29.198Z,30.50
2022-12-26T20:24:57.043Z,33.13
2022-12-26T20:27:24.979Z,33.57
2022-12-26T20:29:54.238Z,31.37
2022-12-26T20:32:22.125Z,31.57
2022-12-26T20:34:50.104Z,31.40
2022-12-26T20:37:18.769Z,34.43
2022-12-26T20:39:46.709Z,33.60
2022-12-26T20:42:16.385Z,31.37
2022-12-26T20:44:44.568Z,31.90
2022-12-26T20:47:13.754Z,29.73
2022-12-26T20:49:41.882Z,29.90
2022-12-26T20:52:09.814Z,27.77
2022-12-26T20:54:37.679Z,22.27
2022-12-26T20:57:05.513Z,27.93
2022-12-26T20:59:33.365Z,30.17
2022-12-26T21:02:01.547Z,28.37
2022-12-26T21:04:30.954Z,26.90
2022-12-26T21:06:58.843Z,27.30
2022-12-26T21:09:26.990Z,27.20
2022-12-26T21:11:54.909Z,26.90
2022-12-26T21:14:25.323Z,27.67
2022-12-26T21:16:55.530Z,29.93
2022-12-26T21:19:24.957Z,29.47
2022-12-26T21:21:55.782Z,31.37
2022-12-26T21:24:25.867Z,29.40
2022-12-26T21:26:54.388Z,31.00
2022-12-26T21:29:26.118Z,32.03
2022-12-26T21:31:57.016Z,30.07
2022-12-26T21:34:27.801Z,31.40
2022-12-26T21:37:14.701Z,33.03
2022-12-26T21:39:43.659Z,33.97
2022-12-26T21:42:11.826Z,33.60
2022-12-26T21:44:40.400Z,32.87
2022-12-26T21:47:08.853Z,31.87
2022-12-26T21:49:36.954Z,31.33
2022-12-26T21:52:07.715Z,31.67
2022-12-26T21:54:53.307Z,31.10
2022-12-26T21:57:22.512Z,29.80
2022-12-26T21:59:59.865Z,31.20
2022-12-26T22:02:47.819Z,30.47
2022-12-26T22:05:16.745Z,31.80
2022-12-26T22:07:46.353Z,33.10
2022-12-26T22:10:35.387Z,31.00
2022-12-26T22:13:03.352Z,31.17
2022-12-26T22:15:48.890Z,32.57
2022-12-26T22:18:17.011Z,31.57
2022-12-26T22:20:45.923Z,30.47
2022-12-26T22:23:15.567Z,30.10
2022-12-26T22:25:43.677Z,31.60
2022-12-26T22:28:11.705Z,30.23
2022-12-26T22:30:39.599Z,30.83
2022-12-26T22:33:07.407Z,32.43
2022-12-26T22:35:35.330Z,31.63
2022-12-26T22:38:03.190Z,31.20
2022-12-26T22:40:32.490Z,33.30
2022-12-26T22:43:00.430Z,32.97
2022-12-26T22:45:28.311Z,33.07
2022-12-26T22:47:56.354Z,32.63
2022-12-26T22:50:24.292Z,32.00
2022-12-26T22:52:52.946Z,31.90
2022-12-26T22:55:20.846Z,31.80
2022-12-26T22:57:52.664Z,32.70
2022-12-26T23:00:21.106Z,30.10
2022-12-26T23:02:48.992Z,31.73
2022-12-26T23:05:17.390Z,30.17
2022-12-26T23:07:46.032Z,30.33
2022-12-26T23:10:19.455Z,32.17
2022-12-26T23:12:48.005Z,30.07
2022-12-26T23:15:19.708Z,27.10
2022-12-26T23:18:09.624Z,30.50
2022-12-26T23:20:56.388Z,30.67
2022-12-26T23:23:25.066Z,30.87
2022-12-26T23:25:52.982Z,29.90
2022-12-26T23:28:38.772Z,29.00
2022-12-26T23:31:08.567Z,29.70
2022-12-26T23:33:36.521Z,29.30
2022-12-26T23:36:04.758Z,28.50
2022-12-26T23:38:32.723Z,28.50
2022-12-26T23:41:00.590Z,26.17
2022-12-26T23:43:28.526Z,25.47
2022-12-26T23:45:56.375Z,28.17
2022-12-26T23:48:25.613Z,28.30
2022-12-26T23:51:02.114Z,27.27
2022-12-26T23:53:30.263Z,27.30
2022-12-26T23:55:58.379Z,26.07
2022-12-26T23:58:26.784Z,25.07
